This is the latest recevied weather packets stored in our database for station/object IU2PLZ-10. If no packets are shown the sender has not sent any weather packets the latest 10 day(s).
| Time | Temp. | Humidity | Pressure | Rain* | Wind** | Luminosity | Snow |
|---|---|---|---|---|---|---|---|
| 1778097807 | 21.67° C | 47% | 962.6 hPa | - | - | - | - |
| 1778096907 | 21.67° C | 46% | 961.8 hPa | - | - | - | - |
| 1778096006 | 21.11° C | 46% | 960.7 hPa | - | - | - | - |
| 1778095106 | 21.67° C | 46% | 961.3 hPa | - | - | - | - |
| 1778094206 | 21.67° C | 46% | 961.1 hPa | - | - | - | - |
| 1778093306 | 21.67° C | 46% | 961 hPa | - | - | - | - |
| 1778092406 | 21.67° C | 47% | 960.8 hPa | - | - | - | - |
| 1778091505 | 21.67° C | 46% | 960.6 hPa | - | - | - | - |
| 1778090606 | 21.67° C | 46% | 961.4 hPa | - | - | - | - |
| 1778089705 | 21.67° C | 46% | 961.5 hPa | - | - | - | - |
| 1778088805 | 21.67° C | 46% | 961.4 hPa | - | - | - | - |
| 1778087905 | 21.67° C | 46% | 960.7 hPa | - | - | - | - |
| 1778087005 | 21.67° C | 45% | 960.9 hPa | - | - | - | - |
| 1778086104 | 22.78° C | 44% | 961.4 hPa | - | - | - | - |
| 1778085204 | 22.78° C | 44% | 961.5 hPa | - | - | - | - |
| 1778084941 | 22.22° C | 45% | 961.6 hPa | - | - | - | - |
| 1778084304 | 22.22° C | 45% | 961.6 hPa | - | - | - | - |
| 1778083404 | 22.22° C | 45% | 961.4 hPa | - | - | - | - |
| 1778082504 | 22.22° C | 45% | 960.6 hPa | - | - | - | - |
| 1778081604 | 22.78° C | 44% | 960.6 hPa | - | - | - | - |
| 1778080703 | 23.33° C | 44% | 961.3 hPa | - | - | - | - |
| 1778079803 | 23.89° C | 43% | 961.4 hPa | - | - | - | - |
| 1778078903 | 24.44° C | 42% | 961.8 hPa | - | - | - | - |
| 1778078003 | 25° C | 41% | 962.2 hPa | - | - | - | - |
| 1778077103 | 25.56° C | 42% | 963.2 hPa | - | - | - | - |
* Rain since midnight (hover to see other rain measurements)
** Current wind speed in m/s (hover to see current wind gust speed)